»·PEaware :: SWA645 KLAS-KBUR

SWA645 :: KLAS-KBUR

FLIGHT INFORMATION

Flight Status: Arrived
Operator:
Southwest Airlines
More flights by this operator :: More flights under this callsign
Pilot: Drew L. (13237)
Aircraft: BOEING 737-800
(B738)
More flights by this aircraft type
Origin: KLAS McCarran Intl
United States
Destination: KBUR Bob Hope-Burbank
United States
More flights between these airports :: More routes between these airports
Route: BOACH8 WHIGG KREME JANNY3
File this flight plan on PilotEdge
Remarks: PBN / A1B1C1D1S1S2 DOF / 180301 REG / N806SB OPR / SWA PER / C RMK / TCAS SIMBRIEF
Altitude:
(Current/Filed)
24,000ft
Speed:
(Current/Filed)
433kts
Departed: 28-Feb-18 07:49 PM
Arrived: 28-Feb-18 08:38 PM
Distance/Time
Traveled:
193nm/0:48
Distance/Time
To Go:
Arrived

Flight Plot

Page will automatically refresh every two minutes.

Flight plan parsing failed; only flown route is shown


Map Options




Map Legend


Flown Route
Filed Route
Departure Airport
Arrival Airport
Navaid (VOR, NDB)
Fix

Horizontal Profiles

Position Reports

Time Latitude Longitude Heading Altitude Ground
Speed
28-Feb-18 19:37 36.080483 -115.136450 41 2148ft 0kts
28-Feb-18 19:38 36.080483 -115.136450 41 2148ft 0kts
28-Feb-18 19:39 36.080483 -115.136450 41 2148ft 0kts
28-Feb-18 19:40 36.080483 -115.136450 41 2148ft 0kts
28-Feb-18 19:41 36.080483 -115.136450 41 2148ft 0kts
28-Feb-18 19:42 36.080483 -115.136450 41 2148ft 0kts
28-Feb-18 19:43 36.080483 -115.136450 41 2148ft 0kts
28-Feb-18 19:44 36.080483 -115.136450 41 2148ft 0kts
28-Feb-18 19:45 36.080483 -115.136450 41 2148ft 0kts
28-Feb-18 19:46 36.080483 -115.136450 41 2148ft 0kts
28-Feb-18 19:47 36.080483 -115.136451 41 2148ft 0kts
28-Feb-18 19:48 36.080127 -115.136837 45 2148ft 2kts
28-Feb-18 19:49 36.080137 -115.137436 136 2148ft 1kts
28-Feb-18 19:50 36.080170 -115.137476 133 2148ft 0kts
28-Feb-18 19:51 36.079473 -115.136583 134 2148ft 4kts
28-Feb-18 19:52 36.078303 -115.134710 96 2148ft 10kts
28-Feb-18 19:53 36.078268 -115.129842 89 2148ft 16kts
28-Feb-18 19:54 36.078267 -115.124039 90 2148ft 18kts
28-Feb-18 19:55 36.076440 -115.122660 270 2148ft 26kts
28-Feb-18 19:56 36.076636 -115.169690 267 2986ft 187kts
28-Feb-18 19:57 36.075874 -115.236093 255 5469ft 201kts
28-Feb-18 19:58 36.024699 -115.278150 200 7666ft 268kts
28-Feb-18 19:59 35.952691 -115.305616 183 10121ft 279kts
28-Feb-18 20:00 35.871164 -115.313634 188 12022ft 308kts
28-Feb-18 20:01 35.780631 -115.306613 178 14159ft 339kts
28-Feb-18 20:02 35.686961 -115.303933 204 16816ft 340kts
28-Feb-18 20:03 35.617516 -115.377747 230 19368ft 338kts
28-Feb-18 20:04 35.553011 -115.463315 231 21673ft 348kts
28-Feb-18 20:05 35.485894 -115.550930 227 23732ft 359kts
28-Feb-18 20:06 35.410766 -115.639457 227 24133ft 397kts
28-Feb-18 20:07 35.335967 -115.727912 227 24131ft 403kts
28-Feb-18 20:08 35.255658 -115.822844 227 24112ft 403kts
28-Feb-18 20:09 35.175271 -115.917633 227 24103ft 403kts
28-Feb-18 20:10 35.094461 -116.012650 227 24102ft 403kts
28-Feb-18 20:11 35.013763 -116.107261 227 24101ft 403kts
28-Feb-18 20:12 34.940786 -116.192582 227 24100ft 403kts
28-Feb-18 20:13 34.885773 -116.301637 247 24100ft 397kts
28-Feb-18 20:14 34.847187 -116.403031 247 24099ft 397kts
28-Feb-18 20:15 34.801570 -116.520418 246 23685ft 393kts
28-Feb-18 20:16 34.778482 -116.644013 265 22489ft 378kts
28-Feb-18 20:17 34.769216 -116.744081 263 21798ft 376kts
28-Feb-18 20:18 34.764481 -116.793039 263 21470ft 374kts
28-Feb-18 20:19 34.752251 -116.916804 263 20643ft 371kts
28-Feb-18 20:20 34.739764 -117.039852 263 19793ft 365kts
28-Feb-18 20:21 34.727439 -117.160189 263 18953ft 343kts
28-Feb-18 20:22 34.715932 -117.271598 264 18217ft 334kts
28-Feb-18 20:23 34.704346 -117.382736 264 17448ft 331kts
28-Feb-18 20:24 34.692745 -117.493013 264 16685ft 328kts
28-Feb-18 20:25 34.681835 -117.595829 264 15974ft 325kts
28-Feb-18 20:26 34.670529 -117.702211 263 14965ft 321kts
28-Feb-18 20:27 34.660299 -117.798219 263 14313ft 320kts
28-Feb-18 20:28 34.648909 -117.904049 263 13396ft 318kts
28-Feb-18 20:29 34.637545 -118.007819 263 12144ft 303kts
28-Feb-18 20:30 34.622620 -118.105482 256 10990ft 301kts
28-Feb-18 20:31 34.602247 -118.195499 254 9877ft 282kts
28-Feb-18 20:32 34.582426 -118.284046 253 8785ft 266kts
28-Feb-18 20:33 34.563652 -118.367820 253 7923ft 254kts
28-Feb-18 20:34 34.535447 -118.445084 214 7724ft 258kts
28-Feb-18 20:35 34.475732 -118.490782 213 7070ft 253kts
28-Feb-18 20:36 34.421265 -118.532300 212 6908ft 221kts
28-Feb-18 20:37 34.368487 -118.572751 212 6201ft 230kts
28-Feb-18 20:38 34.312043 -118.595807 173 5408ft 216kts
28-Feb-18 20:39 34.257424 -118.587728 172 4415ft 211kts
28-Feb-18 20:40 34.209541 -118.555996 133 3301ft 193kts
28-Feb-18 20:41 34.197751 -118.503725 83 3038ft 158kts
28-Feb-18 20:42 34.198951 -118.460015 92 2193ft 157kts
28-Feb-18 20:43 34.198373 -118.408389 92 1376ft 153kts
28-Feb-18 20:44 34.197780 -118.358316 91 784ft 96kts
28-Feb-18 20:45 34.197486 -118.352022 163 784ft 4kts
28-Feb-18 20:46 34.196822 -118.351974 180 783ft 0kts
28-Feb-18 20:47 34.196822 -118.351974 180 783ft 0kts
28-Feb-18 20:48 34.196822 -118.351974 180 783ft 0kts
28-Feb-18 20:49 34.196822 -118.351974 180 783ft 0kts
28-Feb-18 20:50 34.196822 -118.351974 180 783ft 0kts
28-Feb-18 20:51 34.196822 -118.351974 180 783ft 0kts
28-Feb-18 20:52 34.196822 -118.351974 180 783ft 0kts
28-Feb-18 20:53 34.196822 -118.351974 180 783ft 0kts
28-Feb-18 20:54 34.196822 -118.351974 180 783ft 0kts
28-Feb-18 20:55 34.196822 -118.351974 180 783ft 0kts

Navigation Log

Ident Type
Flight plan parsing failed, navigation log unavailable